GBYD

Banjul/Yundum International Airport

Airport
ICAO code
GBYD
IATA Code
BJL
Summary
ICAO Region
AFI
ICAO Territory
Location

Banjul, Gambia

Serving
Banjul
Elevation
95 ft
Coordinates
13° 20' 34" N , 16° 39' 6" W
KCC
Aw
Metar
Observation
GBYD 111700Z 27006KT 9999 SCT012 32/25 Q1007
Station
Banjul / Yundum
Date/Time
2022-08-11 17:00:00
Wind direction
270°
Wind speed
06 kts
Lowest cloud amount
scattered clouds
Temperature
32°C
Dew point
25°C
Humidity
66%
QNH
1007 hPa
Weather condition
n/a

International airport serving the city of Banjul, The Gambia.

Climatology

Tropical Savanna climate (Köppen climate classification Aw)

Runways

Designator Length Width Surface Rops
14/32 3600 45 ASP Yes/Yes

Airport map

Aerial View

SKYbrary Partners:

Safety knowledge contributed by: